Mn Pelican — FMLR — position and weather

sailwx.info

Track history (hours):
 
Tides and Currents Weather Stations Pressure Air Temp Water Temp Dewpoint Dewpoint Depression Visibility Wind Speed Wind Dir Waves Ship Positions

Mn Pelican

Last reported at 2016-Feb-07 08:16 UTC. Time now 2016-Feb-10 12:59 UTC.
Position N 41°59' W 009°49'.

Length 155 m; draft 5.8 m.

Type: Ship. MMSI: 228315700.

Date/timePositionNaut miles runAvg speedWind from/ knotsBaromVisibWave heightAir tempDewpointWater temp
2016-Feb-07 08:16N 41°59' W 009°49'2212.6
2016-Feb-07 06:31N 41°37' W 009°49'1413.8
2016-Feb-07 05:31N 41°23' W 009°49'1414.3
2016-Feb-07 04:31N 41°09' W 009°50'1313.3
2016-Feb-07 03:33N 40°56' W 009°51'1413.7
2016-Feb-07 02:33N 40°42' W 009°52'3216.0
2016-Feb-07 00:33N 40°10' W 009°52'1716.6
2016-Feb-06 23:33N 39°54' W 009°51'1716.2
2016-Feb-06 22:31N 39°37' W 009°51'1414.3
2016-Feb-06 21:33N 39°23' W 009°51'1515.3
2016-Feb-06 20:33N 39°08' W 009°51'1616.2
2016-Feb-06 19:34N 38°52' W 009°52'1717.0
2016-Feb-06 18:34N 38°35' W 009°48'1918.4
2016-Feb-06 17:33N 38°17' W 009°44'1817.0
2016-Feb-06 16:28N 37°59' W 009°39'1717.9
2016-Feb-06 15:31N 37°42' W 009°35'2814.1
2016-Feb-06 13:31N 37°15' W 009°27'1919.5
2016-Feb-06 12:31N 36°56' W 009°20'1818.1
2016-Feb-06 11:31N 36°43' W 009°04'1918.8
2016-Feb-06 10:31N 36°38' W 008°41'1918.9
2016-Feb-06 09:31N 36°32' W 008°19'13418.1
2016-Feb-06 02:07N 35°58' W 005°38'916.5
2016-Feb-06 01:33N 36°01' W 005°27'9 8.9
2016-Feb-06 00:32N 36°09' W 005°22'0 0.1
2016-Feb-05 23:32N 36°09' W 005°22'0 0.0
2016-Feb-05 22:25N 36°09' W 005°22'0 0.0
2016-Feb-05 21:30N 36°09' W 005°22'0 0.0
2016-Feb-05 20:34N 36°09' W 005°22'0 0.0
2016-Feb-05 19:22N 36°09' W 005°22'0 0.0
2016-Feb-05 18:14N 36°09' W 005°22'0 0.0
2016-Feb-05 17:22N 36°09' W 005°22'0 0.0
2016-Feb-05 16:32N 36°09' W 005°22'0 0.0
2016-Feb-05 15:33N 36°09' W 005°22'0 0.0
2016-Feb-05 14:32N 36°09' W 005°22'0 0.1
2016-Feb-05 13:27N 36°09' W 005°22'4 4.0
2016-Feb-05 12:34N 36°05' W 005°22'8 7.5
2016-Feb-05 11:33N 36°05' W 005°12'5 1.0
2016-Feb-05 06:21N 36°09' W 005°08'2 1.9
2016-Feb-05 05:34N 36°07' W 005°08'1 0.9
2016-Feb-05 04:33N 36°08' W 005°09'1 1.3
2016-Feb-05 03:33N 36°08' W 005°11'9 9.1
2016-Feb-05 02:33N 36°05' W 005°21'3 2.9
2016-Feb-05 01:33N 36°08' W 005°22'0 0.1
2016-Feb-05 00:33N 36°08' W 005°22'1 0.9
2016-Feb-04 23:33N 36°07' W 005°22'0 0.1
2016-Feb-04 22:31N 36°07' W 005°22'0 0.2
2016-Feb-04 21:33N 36°07' W 005°22'0 0.2
2016-Feb-04 20:34N 36°07' W 005°22'4 4.4
2016-Feb-04 19:33N 36°05' W 005°17'6 6.0
2016-Feb-04 18:33N 36°08' W 005°11'2 1.5
2016-Feb-04 17:33N 36°09' W 005°10'1 0.6
2016-Feb-04 15:15N 36°11' W 005°10'1 1.4
2016-Feb-04 14:26N 36°10' W 005°09'20313.7
2016-Feb-03 23:33N 37°11' W 001°07'1615.9
2016-Feb-03 22:33N 37°22' W 000°52'1615.8
2016-Feb-03 21:33N 37°32' W 000°37'1515.2
2016-Feb-03 20:33N 37°44' W 000°25'1515.5
2016-Feb-03 19:33N 37°57' W 000°15'1515.3
2016-Feb-03 18:33N 38°10' W 000°04'1515.4
2016-Feb-03 17:33N 38°23' E 000°07'10915.5
2016-Feb-03 10:31N 39°49' E 001°32'1515.2
2016-Feb-03 09:33N 40°01' E 001°43'1616.0
2016-Feb-03 08:33N 40°13' E 001°57'1615.8
2016-Feb-03 07:33N 40°26' E 002°09'1615.5
2016-Feb-03 06:33N 40°38' E 002°22'1515.3
2016-Feb-03 05:33N 40°50' E 002°35'1615.7
2016-Feb-03 04:33N 41°02' E 002°47'1616.0
2016-Feb-03 03:33N 41°14' E 003°01'11015.5
2016-Feb-02 20:29N 42°40' E 004°34'1414.9
2016-Feb-02 19:33N 42°51' E 004°46'1514.5
2016-Feb-02 18:33N 43°02' E 004°58'1515.2
2016-Feb-02 17:33N 43°15' E 005°09'9 2.9
2016-Feb-02 14:33N 43°21' E 005°17'0 0.1
2016-Feb-02 13:32N 43°21' E 005°17'6 5.7
2016-Feb-02 12:33N 43°17' E 005°12'1211.9
2016-Feb-02 11:33N 43°05' E 005°14'8 8.2
2016-Feb-02 10:33N 43°03' E 005°03'1817.6
2016-Feb-02 09:33N 43°19' E 005°13'6 0.4
2016-Feb-01 19:27N 43°19' E 005°21'0 0.0
2016-Feb-01 09:04N 43°19' E 005°21'0 0.0
2016-Feb-01 05:27N 43°19' E 005°21'0 0.0
2016-Feb-01 04:08N 43°19' E 005°21'0 0.0
2016-Jan-31 23:18N 43°19' E 005°21'0 0.0
2016-Jan-31 18:13N 43°19' E 005°21'0 0.3
2016-Jan-31 17:33N 43°19' E 005°21'7 6.5
2016-Jan-31 16:30N 43°17' E 005°12'8 8.5
2016-Jan-31 15:33N 43°09' E 005°12'2 2.1
2016-Jan-31 14:33N 43°10' E 005°09'1310.4
2016-Jan-31 13:17N 43°21' E 005°18'3 1.0
2016-Jan-31 10:25N 43°19' E 005°21'0 0.0
2016-Jan-31 07:21N 43°19' E 005°21'0 0.0
2016-Jan-31 06:32N 43°19' E 005°21'0 0.0
2016-Jan-31 05:26N 43°19' E 005°21'0 0.0
2016-Jan-31 04:13N 43°19' E 005°21'0 0.0
2016-Jan-31 03:25N 43°19' E 005°21'0 0.0
2016-Jan-31 02:09N 43°19' E 005°21'0 0.0
2016-Jan-31 01:30N 43°19' E 005°21'0 0.0
2016-Jan-31 00:18N 43°19' E 005°21'0 0.0
2016-Jan-30 21:29N 43°19' E 005°21'0 0.0
2016-Jan-30 20:28N 43°19' E 005°21'0 0.0
2016-Jan-30 19:16N 43°19' E 005°21'0 0.0
2016-Jan-30 16:26N 43°19' E 005°21'0 0.0
2016-Jan-30 14:28N 43°19' E 005°21'0 0.0
2016-Jan-30 09:14N 43°19' E 005°21'0 0.0
2016-Jan-30 04:27N 43°19' E 005°21'0 0.0
2016-Jan-30 02:32N 43°19' E 005°21'0 0.0
2016-Jan-29 23:31N 43°19' E 005°21'0 0.0
2016-Jan-29 22:19N 43°19' E 005°21'0 0.0
2016-Jan-29 17:16N 43°19' E 005°21'0 0.0
2016-Jan-29 09:25N 43°19' E 005°21'0 0.0
2016-Jan-29 08:07N 43°19' E 005°21'0 0.0
2016-Jan-28 23:03N 43°19' E 005°21'0 0.0
2016-Jan-28 21:20N 43°19' E 005°21'0 0.0
2016-Jan-28 20:32N 43°19' E 005°21'0 0.0
2016-Jan-28 19:25N 43°19' E 005°21'0 0.0
2016-Jan-28 17:24N 43°19' E 005°21'0 0.0
2016-Jan-28 16:06N 43°19' E 005°21'0 0.0
2016-Jan-28 13:30N 43°19' E 005°21'0 0.0
2016-Jan-28 12:30N 43°19' E 005°21'0 0.0
2016-Jan-28 11:05N 43°19' E 005°21'0 0.0
2016-Jan-28 10:29N 43°19' E 005°21'0 0.0
2016-Jan-28 09:23N 43°19' E 005°21'0 0.0
2016-Jan-28 08:29N 43°19' E 005°21'  
Track history (hours):
 
Tides and Currents Weather Stations Pressure Air Temp Water Temp Dewpoint Dewpoint Depression Visibility Wind Speed Wind Dir Waves Ship Positions

Mn Pelican

Last reported at 2016-Feb-07 08:16 UTC. Time now 2016-Feb-10 12:59 UTC.
Position N 41°59' W 009°49'.

Length 155 m; draft 5.8 m.

Type: Ship. MMSI: 228315700.

Date/timePositionNaut miles runAvg speedWind from/ knotsBaromVisibWave heightAir tempDewpointWater temp
2016-Feb-07 08:16N 41°59' W 009°49'2212.6
2016-Feb-07 06:31N 41°37' W 009°49'1413.8
2016-Feb-07 05:31N 41°23' W 009°49'1414.3
2016-Feb-07 04:31N 41°09' W 009°50'1313.3
2016-Feb-07 03:33N 40°56' W 009°51'1413.7
2016-Feb-07 02:33N 40°42' W 009°52'3216.0
2016-Feb-07 00:33N 40°10' W 009°52'1716.6
2016-Feb-06 23:33N 39°54' W 009°51'1716.2
2016-Feb-06 22:31N 39°37' W 009°51'1414.3
2016-Feb-06 21:33N 39°23' W 009°51'1515.3
2016-Feb-06 20:33N 39°08' W 009°51'1616.2
2016-Feb-06 19:34N 38°52' W 009°52'1717.0
2016-Feb-06 18:34N 38°35' W 009°48'1918.4
2016-Feb-06 17:33N 38°17' W 009°44'1817.0
2016-Feb-06 16:28N 37°59' W 009°39'1717.9
2016-Feb-06 15:31N 37°42' W 009°35'2814.1
2016-Feb-06 13:31N 37°15' W 009°27'1919.5
2016-Feb-06 12:31N 36°56' W 009°20'1818.1
2016-Feb-06 11:31N 36°43' W 009°04'1918.8
2016-Feb-06 10:31N 36°38' W 008°41'1918.9
2016-Feb-06 09:31N 36°32' W 008°19'13418.1
2016-Feb-06 02:07N 35°58' W 005°38'916.5
2016-Feb-06 01:33N 36°01' W 005°27'9 8.9
2016-Feb-06 00:32N 36°09' W 005°22'0 0.1
2016-Feb-05 23:32N 36°09' W 005°22'0 0.0
2016-Feb-05 22:25N 36°09' W 005°22'0 0.0
2016-Feb-05 21:30N 36°09' W 005°22'0 0.0
2016-Feb-05 20:34N 36°09' W 005°22'0 0.0
2016-Feb-05 19:22N 36°09' W 005°22'0 0.0
2016-Feb-05 18:14N 36°09' W 005°22'0 0.0
2016-Feb-05 17:22N 36°09' W 005°22'0 0.0
2016-Feb-05 16:32N 36°09' W 005°22'0 0.0
2016-Feb-05 15:33N 36°09' W 005°22'0 0.0
2016-Feb-05 14:32N 36°09' W 005°22'0 0.1
2016-Feb-05 13:27N 36°09' W 005°22'4 4.0
2016-Feb-05 12:34N 36°05' W 005°22'8 7.5
2016-Feb-05 11:33N 36°05' W 005°12'5 1.0
2016-Feb-05 06:21N 36°09' W 005°08'2 1.9
2016-Feb-05 05:34N 36°07' W 005°08'1 0.9
2016-Feb-05 04:33N 36°08' W 005°09'1 1.3
2016-Feb-05 03:33N 36°08' W 005°11'9 9.1
2016-Feb-05 02:33N 36°05' W 005°21'3 2.9
2016-Feb-05 01:33N 36°08' W 005°22'0 0.1
2016-Feb-05 00:33N 36°08' W 005°22'1 0.9
2016-Feb-04 23:33N 36°07' W 005°22'0 0.1
2016-Feb-04 22:31N 36°07' W 005°22'0 0.2
2016-Feb-04 21:33N 36°07' W 005°22'0 0.2
2016-Feb-04 20:34N 36°07' W 005°22'4 4.4
2016-Feb-04 19:33N 36°05' W 005°17'6 6.0
2016-Feb-04 18:33N 36°08' W 005°11'2 1.5
2016-Feb-04 17:33N 36°09' W 005°10'1 0.6
2016-Feb-04 15:15N 36°11' W 005°10'1 1.4
2016-Feb-04 14:26N 36°10' W 005°09'20313.7
2016-Feb-03 23:33N 37°11' W 001°07'1615.9
2016-Feb-03 22:33N 37°22' W 000°52'1615.8
2016-Feb-03 21:33N 37°32' W 000°37'1515.2
2016-Feb-03 20:33N 37°44' W 000°25'1515.5
2016-Feb-03 19:33N 37°57' W 000°15'1515.3
2016-Feb-03 18:33N 38°10' W 000°04'1515.4
2016-Feb-03 17:33N 38°23' E 000°07'10915.5
2016-Feb-03 10:31N 39°49' E 001°32'1515.2
2016-Feb-03 09:33N 40°01' E 001°43'1616.0
2016-Feb-03 08:33N 40°13' E 001°57'1615.8
2016-Feb-03 07:33N 40°26' E 002°09'1615.5
2016-Feb-03 06:33N 40°38' E 002°22'1515.3
2016-Feb-03 05:33N 40°50' E 002°35'1615.7
2016-Feb-03 04:33N 41°02' E 002°47'1616.0
2016-Feb-03 03:33N 41°14' E 003°01'11015.5
2016-Feb-02 20:29N 42°40' E 004°34'1414.9
2016-Feb-02 19:33N 42°51' E 004°46'1514.5
2016-Feb-02 18:33N 43°02' E 004°58'1515.2
2016-Feb-02 17:33N 43°15' E 005°09'9 2.9
2016-Feb-02 14:33N 43°21' E 005°17'0 0.1
2016-Feb-02 13:32N 43°21' E 005°17'6 5.7
2016-Feb-02 12:33N 43°17' E 005°12'1211.9
2016-Feb-02 11:33N 43°05' E 005°14'8 8.2
2016-Feb-02 10:33N 43°03' E 005°03'1817.6
2016-Feb-02 09:33N 43°19' E 005°13'6 0.4
2016-Feb-01 19:27N 43°19' E 005°21'0 0.0
2016-Feb-01 09:04N 43°19' E 005°21'0 0.0
2016-Feb-01 05:27N 43°19' E 005°21'0 0.0
2016-Feb-01 04:08N 43°19' E 005°21'0 0.0
2016-Jan-31 23:18N 43°19' E 005°21'0 0.0
2016-Jan-31 18:13N 43°19' E 005°21'0 0.3
2016-Jan-31 17:33N 43°19' E 005°21'7 6.5
2016-Jan-31 16:30N 43°17' E 005°12'8 8.5
2016-Jan-31 15:33N 43°09' E 005°12'2 2.1
2016-Jan-31 14:33N 43°10' E 005°09'1310.4
2016-Jan-31 13:17N 43°21' E 005°18'3 1.0
2016-Jan-31 10:25N 43°19' E 005°21'0 0.0
2016-Jan-31 07:21N 43°19' E 005°21'0 0.0
2016-Jan-31 06:32N 43°19' E 005°21'0 0.0
2016-Jan-31 05:26N 43°19' E 005°21'0 0.0
2016-Jan-31 04:13N 43°19' E 005°21'0 0.0
2016-Jan-31 03:25N 43°19' E 005°21'0 0.0
2016-Jan-31 02:09N 43°19' E 005°21'0 0.0
2016-Jan-31 01:30N 43°19' E 005°21'0 0.0
2016-Jan-31 00:18N 43°19' E 005°21'0 0.0
2016-Jan-30 21:29N 43°19' E 005°21'0 0.0
2016-Jan-30 20:28N 43°19' E 005°21'0 0.0
2016-Jan-30 19:16N 43°19' E 005°21'0 0.0
2016-Jan-30 16:26N 43°19' E 005°21'0 0.0
2016-Jan-30 14:28N 43°19' E 005°21'0 0.0
2016-Jan-30 09:14N 43°19' E 005°21'0 0.0
2016-Jan-30 04:27N 43°19' E 005°21'0 0.0
2016-Jan-30 02:32N 43°19' E 005°21'0 0.0
2016-Jan-29 23:31N 43°19' E 005°21'0 0.0
2016-Jan-29 22:19N 43°19' E 005°21'0 0.0
2016-Jan-29 17:16N 43°19' E 005°21'0 0.0
2016-Jan-29 09:25N 43°19' E 005°21'0 0.0
2016-Jan-29 08:07N 43°19' E 005°21'0 0.0
2016-Jan-28 23:03N 43°19' E 005°21'0 0.0
2016-Jan-28 21:20N 43°19' E 005°21'0 0.0
2016-Jan-28 20:32N 43°19' E 005°21'0 0.0
2016-Jan-28 19:25N 43°19' E 005°21'0 0.0
2016-Jan-28 17:24N 43°19' E 005°21'0 0.0
2016-Jan-28 16:06N 43°19' E 005°21'0 0.0
2016-Jan-28 13:30N 43°19' E 005°21'0 0.0
2016-Jan-28 12:30N 43°19' E 005°21'0 0.0
2016-Jan-28 11:05N 43°19' E 005°21'0 0.0
2016-Jan-28 10:29N 43°19' E 005°21'0 0.0
2016-Jan-28 09:23N 43°19' E 005°21'0 0.0
2016-Jan-28 08:29N 43°19' E 005°21'  

Dump ship's entire track history